Главная страница
METAR-TAF:

METAR-TAF

Аэропорты :

South Jersey Regional Airport

Mount Holly, Нью-Джерси, США

широта: 39-56-26N, долгота: 074-50-28W, высота над уровнем моря: 16 м

Текущие метеонаблюдения

Эта сводка был подготовлена 34 минут назад, в 08:54 UTC
Штиль
Температура 2°C
Влажность 80%
Давление 1024 hPa
Видимость: 16.1 км
небольшая облачность на высоте 5000 фута

METAR: KVAY 220854Z AUTO 00000KT 10SM FEW050 02/M01 A3025 RMK AO2 SLP242 T00171006 51005 $

Время: 05:28 (09:28 UTC)


TAF: отсутствует

Метеонаблюдения и прогнозы для более 4000 аэропортов (сводки METAR и TAF).

Имеющиеся станции представлены на карте желтыми и красными точками.

Чтобы увидеть название станции, наведите на нее мышь.

Затем щелкните, чтобы увидеть метеонаблюдения и метеопрогнозы.

Управление картой: чтобы увеличить масштаб, щелкните зеленые кнопки с черным крестиком; чтобы уменьшить масштаб, щелкните зеленую кнопку с тире; для просмотра соседних карт щелкайте зеленые стрелки.


METAR-TAF: